createdAt,value
2023-11-29T00:01:38.281Z,99758.38
2023-11-29T00:04:08.370Z,99711.63
2023-11-29T00:06:38.611Z,99693.00
2023-11-29T00:09:09.940Z,99741.25
2023-11-29T00:11:39.949Z,99732.81
2023-11-29T00:14:12.501Z,99737.34
2023-11-29T00:16:42.489Z,99724.72
2023-11-29T00:19:12.389Z,99726.38
2023-11-29T00:21:45.693Z,99691.13
2023-11-29T00:24:15.995Z,99724.50
2023-11-29T00:26:45.889Z,99721.13
2023-11-29T00:29:18.485Z,99706.00
2023-11-29T00:31:48.362Z,99716.56
2023-11-29T00:34:18.196Z,99690.84
2023-11-29T00:36:50.566Z,99658.03
2023-11-29T00:39:21.985Z,99704.34
2023-11-29T00:41:51.883Z,99663.44
2023-11-29T00:44:24.356Z,99701.25
2023-11-29T00:46:54.303Z,99688.53
2023-11-29T00:49:24.405Z,99685.84
2023-11-29T00:51:54.306Z,99687.38
2023-11-29T00:54:24.251Z,99600.03
2023-11-29T00:56:54.636Z,99675.47
2023-11-29T00:59:27.180Z,99663.13
2023-11-29T01:01:57.168Z,99647.06
2023-11-29T01:04:27.042Z,99646.44
2023-11-29T01:06:56.901Z,99612.81
2023-11-29T01:09:26.754Z,99568.94
2023-11-29T01:11:57.268Z,99625.16
2023-11-29T01:14:29.767Z,99614.59
2023-11-29T01:17:00.184Z,99624.69
2023-11-29T01:19:30.120Z,99652.09
2023-11-29T01:22:00.675Z,99647.88
2023-11-29T01:24:30.572Z,99645.56
2023-11-29T01:27:00.451Z,99646.75
2023-11-29T01:29:32.912Z,99652.91
2023-11-29T01:32:02.772Z,99514.16
2023-11-29T01:34:32.637Z,99631.03
2023-11-29T01:37:02.490Z,99612.75
2023-11-29T01:39:32.378Z,99593.75
2023-11-29T01:42:02.233Z,99596.44
2023-11-29T01:44:34.857Z,99604.69
2023-11-29T01:47:09.132Z,99604.34
2023-11-29T01:49:39.214Z,99599.66
2023-11-29T01:52:10.241Z,99397.03
2023-11-29T01:54:40.941Z,99595.69
2023-11-29T01:57:10.904Z,99603.75
2023-11-29T01:59:43.492Z,99593.78
2023-11-29T02:02:13.653Z,99602.44
2023-11-29T02:04:44.135Z,99586.97
2023-11-29T02:07:15.873Z,99593.53
2023-11-29T02:09:46.289Z,99609.03
2023-11-29T02:12:16.600Z,99571.91
2023-11-29T02:14:49.160Z,99601.41
2023-11-29T02:17:19.804Z,99595.13
2023-11-29T02:19:49.686Z,99599.38
2023-11-29T02:22:20.856Z,99592.63
2023-11-29T02:24:53.471Z,99553.63
2023-11-29T02:27:24.846Z,99586.88
2023-11-29T02:29:54.714Z,99576.25
2023-11-29T02:32:24.741Z,99585.84
2023-11-29T02:34:54.663Z,99497.91
2023-11-29T02:37:24.532Z,99576.16
2023-11-29T02:39:58.473Z,99571.06
2023-11-29T02:42:28.330Z,99541.09
2023-11-29T02:44:58.210Z,99570.44
2023-11-29T02:47:28.448Z,99492.47
2023-11-29T02:49:58.370Z,99536.31
2023-11-29T02:52:28.246Z,99327.44
2023-11-29T02:55:01.592Z,99535.28
2023-11-29T02:57:32.117Z,99517.28
2023-11-29T03:00:02.170Z,99534.47
2023-11-29T03:02:32.068Z,99526.81
2023-11-29T03:05:01.959Z,99493.44
2023-11-29T03:07:31.817Z,99459.06
2023-11-29T03:10:04.282Z,99532.78
2023-11-29T03:12:34.133Z,99530.63
2023-11-29T03:15:04.006Z,99489.59
2023-11-29T03:17:34.014Z,99464.78
2023-11-29T03:20:04.961Z,99521.19
2023-11-29T03:22:34.831Z,99467.44
2023-11-29T03:25:07.930Z,99522.56
2023-11-29T03:27:37.808Z,99484.06
2023-11-29T03:30:09.445Z,99480.84
2023-11-29T03:32:39.345Z,99443.69
2023-11-29T03:35:09.893Z,99507.22
2023-11-29T03:37:39.788Z,99497.03
2023-11-29T03:40:13.024Z,99503.06
2023-11-29T03:42:43.014Z,99492.25
2023-11-29T03:45:10.989Z,99467.94
2023-11-29T03:50:11.795Z,99481.34
2023-11-29T03:52:43.040Z,99476.34
2023-11-29T03:55:16.936Z,99466.44
2023-11-29T03:57:46.919Z,99266.34
2023-11-29T04:00:17.889Z,99461.91
2023-11-29T04:02:47.884Z,99338.72
2023-11-29T04:05:18.291Z,99449.03
2023-11-29T04:07:48.276Z,99452.31
2023-11-29T04:10:20.794Z,99442.22
2023-11-29T04:12:50.662Z,99438.75
2023-11-29T04:15:22.266Z,99364.31
2023-11-29T04:17:52.256Z,99394.56
2023-11-29T04:20:22.202Z,99424.94
2023-11-29T04:22:52.398Z,99423.44
2023-11-29T04:25:24.854Z,99417.41
2023-11-29T04:27:55.163Z,99409.53
2023-11-29T04:30:25.899Z,99415.69
2023-11-29T04:32:57.914Z,99396.59
2023-11-29T04:35:28.961Z,99382.09
2023-11-29T04:37:58.848Z,99356.44
2023-11-29T04:40:31.361Z,99291.63
2023-11-29T04:43:01.229Z,99384.75
2023-11-29T04:45:31.082Z,99375.44
2023-11-29T04:48:01.056Z,99374.13
2023-11-29T04:50:31.099Z,99368.28
2023-11-29T04:53:00.976Z,99374.00
2023-11-29T04:55:33.441Z,99369.31
2023-11-29T04:58:03.286Z,99311.03
2023-11-29T05:00:33.178Z,99374.22
2023-11-29T05:03:03.178Z,99369.44
2023-11-29T05:05:33.464Z,99371.72
2023-11-29T05:08:03.325Z,99357.44
2023-11-29T05:10:35.800Z,99350.69
2023-11-29T05:13:07.263Z,99297.44
2023-11-29T05:15:37.253Z,99331.94
2023-11-29T05:18:08.505Z,99349.09
2023-11-29T05:20:38.551Z,99348.34
2023-11-29T05:23:08.512Z,99341.63
2023-11-29T05:25:41.088Z,99320.47
2023-11-29T05:28:11.185Z,99341.03
2023-11-29T05:30:41.123Z,99341.66
2023-11-29T05:33:11.468Z,99336.88
2023-11-29T05:35:41.628Z,99310.91
2023-11-29T05:38:11.479Z,99302.38
2023-11-29T05:40:43.920Z,99332.25
2023-11-29T05:43:13.764Z,99328.31
2023-11-29T05:45:43.653Z,99329.97
2023-11-29T05:48:13.689Z,99328.31
2023-11-29T05:50:43.781Z,99273.22
2023-11-29T05:53:13.739Z,99314.47
2023-11-29T05:55:46.250Z,99324.44
2023-11-29T05:58:16.086Z,99322.59
2023-11-29T06:00:46.179Z,99327.72
2023-11-29T06:03:16.688Z,99171.56
2023-11-29T06:05:46.670Z,99320.44
2023-11-29T06:08:16.815Z,99280.59
2023-11-29T06:10:49.450Z,99249.63
2023-11-29T06:13:21.648Z,99311.91
2023-11-29T06:15:51.659Z,99306.72
2023-11-29T06:18:22.366Z,99318.38
2023-11-29T06:20:52.302Z,99299.78
2023-11-29T06:23:22.222Z,99308.44
2023-11-29T06:25:55.886Z,99307.63
2023-11-29T06:28:25.835Z,99227.53
2023-11-29T06:30:55.832Z,99286.47
2023-11-29T06:33:25.941Z,99285.88
2023-11-29T06:35:55.824Z,99309.13
2023-11-29T06:38:27.877Z,99308.13
2023-11-29T06:41:02.234Z,99288.38
2023-11-29T06:43:32.439Z,99313.47
2023-11-29T06:46:04.998Z,99260.31
2023-11-29T06:48:35.724Z,99230.13
2023-11-29T06:51:06.008Z,99313.41
2023-11-29T06:53:37.255Z,99301.09
2023-11-29T06:56:12.032Z,99304.56
2023-11-29T06:58:41.967Z,99294.47
2023-11-29T07:01:12.032Z,99274.06
2023-11-29T07:03:41.905Z,99294.47
2023-11-29T07:06:14.317Z,99295.44
2023-11-29T07:08:44.206Z,99266.81
2023-11-29T07:11:16.850Z,99309.88
2023-11-29T07:13:47.464Z,99305.63
2023-11-29T07:16:17.518Z,99290.84
2023-11-29T07:18:47.390Z,99295.50
2023-11-29T07:21:17.330Z,99306.81
2023-11-29T07:23:47.259Z,99306.94
2023-11-29T07:26:19.922Z,99283.03
2023-11-29T07:28:49.951Z,99302.69
2023-11-29T07:31:20.021Z,99303.56
2023-11-29T07:33:59.370Z,99257.69
2023-11-29T07:36:31.153Z,99292.13
2023-11-29T07:39:02.438Z,99298.03
2023-11-29T07:41:34.900Z,99220.41
2023-11-29T07:44:05.128Z,99266.38
2023-11-29T07:46:34.992Z,99280.94
2023-11-29T07:49:05.171Z,99282.81
2023-11-29T07:51:35.041Z,99256.84
2023-11-29T07:54:04.959Z,99206.66
2023-11-29T07:56:37.467Z,99280.16
2023-11-29T07:59:07.336Z,99281.31
2023-11-29T08:01:37.815Z,99294.47
2023-11-29T08:04:07.752Z,99254.16
2023-11-29T08:06:38.334Z,99277.59
2023-11-29T08:09:09.757Z,99295.88
2023-11-29T08:11:45.915Z,99230.31
2023-11-29T08:14:15.899Z,99292.38
2023-11-29T08:16:45.865Z,99219.00
2023-11-29T08:19:15.798Z,99278.19
2023-11-29T08:21:45.665Z,99255.78
2023-11-29T08:24:15.653Z,99241.38
2023-11-29T08:26:50.126Z,99289.34
2023-11-29T08:29:19.998Z,99274.25
2023-11-29T08:31:50.805Z,99284.47
2023-11-29T08:34:20.667Z,99284.63
2023-11-29T08:36:50.502Z,99237.63
2023-11-29T08:39:20.435Z,99280.91
2023-11-29T08:41:52.926Z,99279.41
2023-11-29T08:44:22.816Z,99283.63
2023-11-29T08:46:52.848Z,99111.31
2023-11-29T08:49:23.358Z,99199.59
2023-11-29T08:51:53.995Z,99240.41
2023-11-29T08:54:24.326Z,99248.75
2023-11-29T08:56:56.957Z,99257.56
2023-11-29T08:59:26.927Z,99276.38
2023-11-29T09:01:56.891Z,99230.03
2023-11-29T09:04:26.813Z,99200.38
2023-11-29T09:06:56.677Z,99261.41
2023-11-29T09:09:26.530Z,99190.66
2023-11-29T09:11:59.142Z,99264.50
2023-11-29T09:14:30.965Z,99262.78
2023-11-29T09:17:01.051Z,99268.75
2023-11-29T09:19:31.038Z,99210.13
2023-11-29T09:22:00.955Z,99262.41
2023-11-29T09:24:31.305Z,99263.38
2023-11-29T09:27:06.025Z,99234.22
2023-11-29T09:29:36.917Z,99256.28
2023-11-29T09:32:07.612Z,99251.47
2023-11-29T09:34:37.634Z,99192.44
2023-11-29T09:37:08.042Z,99259.22
2023-11-29T09:39:37.970Z,99254.72
2023-11-29T09:42:10.702Z,99255.53
2023-11-29T09:44:42.598Z,99268.09
2023-11-29T09:47:12.825Z,99205.84
2023-11-29T09:49:42.941Z,99171.31
2023-11-29T09:52:14.785Z,99221.38
2023-11-29T09:54:44.785Z,99259.88
2023-11-29T09:57:17.835Z,99252.56
2023-11-29T09:59:52.151Z,99259.81
2023-11-29T10:02:24.142Z,99263.91
2023-11-29T10:04:54.476Z,99207.41
2023-11-29T10:07:24.373Z,99175.84
2023-11-29T10:09:54.666Z,99263.59
2023-11-29T10:12:27.213Z,99267.75
2023-11-29T10:15:01.795Z,99266.88
2023-11-29T10:17:39.281Z,99261.06
2023-11-29T10:20:11.092Z,99267.03
2023-11-29T10:22:40.981Z,99256.31
2023-11-29T10:25:22.567Z,99228.41
2023-11-29T10:27:55.204Z,99261.72
2023-11-29T10:30:25.179Z,99259.97
2023-11-29T10:32:55.755Z,99255.00
2023-11-29T10:35:27.615Z,99259.25
2023-11-29T10:38:01.146Z,99256.81
2023-11-29T10:40:31.684Z,99186.19
2023-11-29T10:43:09.270Z,99226.53
2023-11-29T10:45:43.315Z,99256.19
2023-11-29T10:48:22.097Z,99225.34
2023-11-29T10:50:52.355Z,99263.81
2023-11-29T10:53:23.192Z,99257.03
2023-11-29T10:55:53.939Z,99260.50
2023-11-29T10:58:32.149Z,99228.69
2023-11-29T11:01:02.026Z,99224.13
2023-11-29T11:03:46.177Z,99262.94
2023-11-29T11:06:37.586Z,99257.91
2023-11-29T11:09:10.742Z,99238.69
2023-11-29T11:11:44.761Z,99190.94
2023-11-29T11:14:22.927Z,99254.94
2023-11-29T11:17:04.874Z,99247.34
2023-11-29T11:19:37.906Z,99270.91
2023-11-29T11:22:13.203Z,99275.34
2023-11-29T11:24:59.099Z,99260.91
2023-11-29T11:27:33.117Z,99267.84
2023-11-29T11:30:07.534Z,99276.22
2023-11-29T11:32:43.828Z,99277.03
2023-11-29T11:35:38.382Z,99245.22
2023-11-29T11:38:10.571Z,99252.59
2023-11-29T11:40:45.121Z,99295.59
2023-11-29T11:43:15.757Z,99294.75
2023-11-29T11:45:49.181Z,99304.00
2023-11-29T11:48:19.268Z,99310.66
2023-11-29T11:50:49.271Z,99317.31
2023-11-29T11:53:19.240Z,99317.94
2023-11-29T11:55:50.477Z,99305.88
2023-11-29T11:58:20.829Z,99334.75
2023-11-29T12:00:53.820Z,99323.56
2023-11-29T12:03:24.154Z,99344.69
2023-11-29T12:05:54.124Z,99346.50
2023-11-29T12:08:24.168Z,99333.25
2023-11-29T12:10:54.703Z,99363.88
2023-11-29T12:13:25.894Z,99382.84
2023-11-29T12:15:58.547Z,99375.78
2023-11-29T12:18:28.651Z,99149.81
2023-11-29T12:20:59.037Z,99390.50
2023-11-29T12:23:34.799Z,99384.72
2023-11-29T12:26:05.936Z,99394.13
2023-11-29T12:28:35.835Z,99378.44
2023-11-29T12:31:08.488Z,99360.66
2023-11-29T12:33:39.427Z,99377.84
2023-11-29T12:36:11.751Z,99369.09
2023-11-29T12:38:42.007Z,99327.69
2023-11-29T12:41:12.271Z,99394.22
2023-11-29T12:43:42.317Z,99427.47
2023-11-29T12:46:14.886Z,99430.13
2023-11-29T12:48:44.998Z,99439.13
2023-11-29T12:51:15.612Z,99441.66
2023-11-29T12:53:47.616Z,99428.88
2023-11-29T12:56:17.528Z,99426.28
2023-11-29T12:58:47.597Z,99427.47
2023-11-29T13:01:20.210Z,99455.63
2023-11-29T13:03:50.259Z,99465.44
2023-11-29T13:06:20.176Z,99472.06
2023-11-29T13:08:52.847Z,99465.78
2023-11-29T13:11:23.231Z,99474.53
2023-11-29T13:13:53.196Z,99441.34
2023-11-29T13:16:25.923Z,99365.56
2023-11-29T13:18:56.145Z,99489.31
2023-11-29T13:21:26.744Z,99500.63
2023-11-29T13:23:56.822Z,99498.06
2023-11-29T13:26:27.063Z,99509.03
2023-11-29T13:28:57.064Z,99514.22
2023-11-29T13:31:29.948Z,99435.53
2023-11-29T13:34:01.000Z,99525.47
2023-11-29T13:36:32.421Z,99427.22
2023-11-29T13:39:02.496Z,99519.59
2023-11-29T13:41:32.769Z,99533.63
2023-11-29T13:44:03.410Z,99515.47
2023-11-29T13:46:36.177Z,99549.03
2023-11-29T13:49:07.136Z,99554.06
2023-11-29T13:51:37.754Z,99479.44
2023-11-29T13:54:08.645Z,99556.44
2023-11-29T13:56:39.370Z,99509.19
2023-11-29T13:59:10.291Z,99569.69
2023-11-29T14:01:43.481Z,99496.84
2023-11-29T14:04:14.432Z,99581.56
2023-11-29T14:06:44.719Z,99574.66
2023-11-29T14:09:15.335Z,99516.97
2023-11-29T14:11:46.220Z,99579.00
2023-11-29T14:14:20.210Z,99585.19
2023-11-29T14:16:53.281Z,99583.56
2023-11-29T14:19:23.828Z,99585.28
2023-11-29T14:21:54.694Z,99575.66
2023-11-29T14:24:25.141Z,99467.88
2023-11-29T14:26:57.894Z,99498.69
2023-11-29T14:29:30.054Z,99584.41
2023-11-29T14:32:04.174Z,99510.84
2023-11-29T14:34:34.923Z,99596.25
2023-11-29T14:37:05.914Z,99593.97
2023-11-29T14:39:37.246Z,99587.00
2023-11-29T14:42:09.253Z,99598.06
2023-11-29T14:44:39.937Z,99600.66
2023-11-29T14:47:13.230Z,99608.28
2023-11-29T14:49:43.885Z,99587.56
2023-11-29T14:52:14.324Z,99526.84
2023-11-29T14:54:44.911Z,99589.19
2023-11-29T14:57:15.299Z,99624.03
2023-11-29T14:59:46.721Z,99622.34
2023-11-29T15:02:20.016Z,99627.53
2023-11-29T15:04:51.011Z,99598.38
2023-11-29T15:07:21.376Z,99634.38
2023-11-29T15:09:53.131Z,99639.47
2023-11-29T15:12:23.667Z,99639.50
2023-11-29T15:14:54.442Z,99641.16
2023-11-29T15:17:27.759Z,99648.06
2023-11-29T15:19:58.497Z,99625.47
2023-11-29T15:22:28.628Z,99656.06
2023-11-29T15:25:08.192Z,99632.72
2023-11-29T15:27:44.865Z,99651.69
2023-11-29T15:30:17.172Z,99655.19
2023-11-29T15:32:52.602Z,99587.28
2023-11-29T15:35:24.263Z,99663.38
2023-11-29T15:37:55.181Z,99623.00
2023-11-29T15:40:25.569Z,99607.91
2023-11-29T15:42:56.417Z,99657.13
2023-11-29T15:45:27.285Z,99667.91
2023-11-29T15:48:00.889Z,99620.91
2023-11-29T15:50:31.380Z,99463.22
2023-11-29T15:53:01.690Z,99663.91
2023-11-29T15:55:31.775Z,99661.75
2023-11-29T15:58:02.525Z,99668.34
2023-11-29T16:00:32.701Z,99671.41
2023-11-29T16:03:05.472Z,99663.13
2023-11-29T16:05:35.681Z,99680.19
2023-11-29T16:08:05.829Z,99676.91
2023-11-29T16:10:35.852Z,99680.22
2023-11-29T16:13:05.996Z,99677.84
2023-11-29T16:15:36.060Z,99674.41
2023-11-29T16:18:08.821Z,99669.28
2023-11-29T16:20:39.571Z,99617.97
2023-11-29T16:23:09.629Z,99619.97
2023-11-29T16:25:39.669Z,99665.75
2023-11-29T16:28:12.300Z,99683.09
2023-11-29T16:30:42.939Z,99688.88
2023-11-29T16:33:19.082Z,99695.63
2023-11-29T16:35:49.839Z,99691.81
2023-11-29T16:38:20.533Z,99546.28
2023-11-29T16:40:51.599Z,99689.38
2023-11-29T16:43:22.266Z,99685.94
2023-11-29T16:45:54.310Z,99688.63
2023-11-29T16:48:27.928Z,99693.78
2023-11-29T16:50:58.864Z,99654.22
2023-11-29T16:53:29.670Z,99694.34
2023-11-29T16:56:00.266Z,99676.41
2023-11-29T16:58:31.421Z,99690.25
2023-11-29T17:01:02.041Z,99690.44
2023-11-29T17:03:35.155Z,99675.59
2023-11-29T17:06:05.731Z,99684.84
2023-11-29T17:08:36.993Z,99687.44
2023-11-29T17:11:09.341Z,99680.28
2023-11-29T17:13:40.081Z,99694.81
2023-11-29T17:16:12.084Z,99678.69
2023-11-29T17:18:45.266Z,99675.50
2023-11-29T17:21:16.004Z,99691.69
2023-11-29T17:23:46.545Z,99667.63
2023-11-29T17:26:17.367Z,99684.00
2023-11-29T17:28:48.166Z,99700.75
2023-11-29T17:31:20.283Z,99651.13
2023-11-29T17:33:53.449Z,99665.88
2023-11-29T17:36:24.049Z,99703.66
2023-11-29T17:38:54.743Z,99711.19
2023-11-29T17:41:25.446Z,99715.38
2023-11-29T17:43:59.325Z,99633.25
2023-11-29T17:46:30.007Z,99715.56
2023-11-29T17:49:03.179Z,99721.09
2023-11-29T17:51:33.915Z,99670.25
2023-11-29T17:54:04.537Z,99723.56
2023-11-29T17:56:39.915Z,99724.31
2023-11-29T17:59:13.742Z,99726.13
2023-11-29T18:01:44.850Z,99720.41
2023-11-29T18:04:19.848Z,99714.50
2023-11-29T18:06:50.833Z,99731.41
2023-11-29T18:09:21.348Z,99727.09
2023-11-29T18:11:51.989Z,99685.06
2023-11-29T18:14:22.476Z,99663.59
2023-11-29T18:16:53.077Z,99728.72
2023-11-29T18:19:26.666Z,99732.38
2023-11-29T18:21:57.164Z,99722.94
2023-11-29T18:24:29.693Z,99731.16
2023-11-29T18:27:00.324Z,99666.72
2023-11-29T18:29:31.408Z,99708.75
2023-11-29T18:32:04.807Z,99727.72
2023-11-29T18:34:38.776Z,99738.88
2023-11-29T18:37:12.617Z,99698.91
2023-11-29T18:39:43.569Z,99677.00
2023-11-29T18:42:15.969Z,99690.91
2023-11-29T18:44:46.864Z,99724.03
2023-11-29T18:47:20.283Z,99743.53
2023-11-29T18:49:53.421Z,99740.53
2023-11-29T18:52:25.697Z,99741.94
2023-11-29T18:54:58.405Z,99749.31
2023-11-29T18:57:31.059Z,99744.63
2023-11-29T19:00:02.916Z,99752.69
2023-11-29T19:02:36.249Z,99738.09
2023-11-29T19:05:10.345Z,99754.63
2023-11-29T19:07:41.253Z,99732.44
2023-11-29T19:10:12.776Z,99725.78
2023-11-29T19:12:45.213Z,99697.78
2023-11-29T19:15:16.113Z,99725.44
2023-11-29T19:17:49.498Z,99689.13
2023-11-29T19:20:23.277Z,99763.88
2023-11-29T19:22:55.115Z,99712.63
2023-11-29T19:25:25.831Z,99758.81
2023-11-29T19:27:56.525Z,99752.97
2023-11-29T19:30:27.959Z,99755.66
2023-11-29T19:33:00.434Z,99670.94
2023-11-29T19:35:36.334Z,99655.28
2023-11-29T19:38:06.538Z,99711.03
2023-11-29T19:40:37.980Z,99709.25
2023-11-29T19:43:08.377Z,99728.91
2023-11-29T19:45:39.488Z,99767.31
2023-11-29T19:48:09.927Z,99757.25
2023-11-29T19:50:50.213Z,99692.66
2023-11-29T19:53:20.388Z,99759.44
2023-11-29T19:55:50.741Z,99672.75
2023-11-29T19:58:28.143Z,99653.13
2023-11-29T20:01:02.997Z,99699.16
2023-11-29T20:03:30.799Z,99767.00
2023-11-29T20:06:04.353Z,99758.50
2023-11-29T20:08:34.931Z,99663.94
2023-11-29T20:11:08.595Z,99763.44
2023-11-29T20:13:41.051Z,99745.19
2023-11-29T20:16:15.336Z,99728.78
2023-11-29T20:18:46.050Z,99767.63
2023-11-29T20:21:19.005Z,99737.72
2023-11-29T20:23:53.464Z,99678.34
2023-11-29T20:26:24.437Z,99750.09
2023-11-29T20:28:55.176Z,99720.03
2023-11-29T20:31:26.229Z,99773.28
2023-11-29T20:33:59.024Z,99748.56
2023-11-29T20:36:34.609Z,99759.38
2023-11-29T20:39:06.958Z,99739.38
2023-11-29T20:41:37.176Z,99680.81
2023-11-29T20:44:15.049Z,99738.50
2023-11-29T20:46:45.633Z,99713.00
2023-11-29T20:49:17.773Z,99755.44
2023-11-29T20:51:51.796Z,99696.28
2023-11-29T20:54:22.251Z,99748.75
2023-11-29T20:56:52.874Z,99745.38
2023-11-29T20:59:24.764Z,99745.50
2023-11-29T21:01:55.876Z,99745.13
2023-11-29T21:04:26.921Z,99758.53
2023-11-29T21:07:01.905Z,99719.28
2023-11-29T21:09:31.941Z,99748.06
2023-11-29T21:12:01.752Z,99747.31
2023-11-29T21:14:31.546Z,99741.31
2023-11-29T21:17:03.856Z,99740.63
2023-11-29T21:19:33.833Z,99742.41
2023-11-29T21:22:06.514Z,99744.69
2023-11-29T21:24:36.780Z,99631.22
2023-11-29T21:27:06.915Z,99746.88
2023-11-29T21:29:37.123Z,99753.81
2023-11-29T21:32:07.545Z,99744.78
2023-11-29T21:34:37.299Z,99743.91
2023-11-29T21:37:13.384Z,99758.81
2023-11-29T21:39:44.361Z,99468.72
2023-11-29T21:42:14.166Z,99753.50
2023-11-29T21:44:43.971Z,99690.63
2023-11-29T21:47:13.824Z,99761.25
2023-11-29T21:49:43.591Z,99762.28
2023-11-29T21:52:16.183Z,99759.09
2023-11-29T21:54:45.933Z,99757.78
2023-11-29T21:57:16.052Z,99756.13
2023-11-29T21:59:49.144Z,99743.94
2023-11-29T22:02:19.070Z,99760.25
2023-11-29T22:04:48.913Z,99760.38
2023-11-29T22:07:21.346Z,99753.84
2023-11-29T22:09:51.152Z,99681.63
2023-11-29T22:12:20.923Z,99715.63
2023-11-29T22:14:50.783Z,99721.44
2023-11-29T22:17:20.611Z,99708.19
2023-11-29T22:19:50.378Z,99779.53
2023-11-29T22:22:22.722Z,99771.84
2023-11-29T22:24:52.486Z,99687.56
2023-11-29T22:27:22.293Z,99770.97
2023-11-29T22:29:52.109Z,99778.53
2023-11-29T22:32:22.038Z,99704.09
2023-11-29T22:34:52.086Z,99693.16
2023-11-29T22:37:25.049Z,99767.31
2023-11-29T22:39:54.874Z,99711.50
2023-11-29T22:42:24.780Z,99772.41
2023-11-29T22:44:54.888Z,99514.09
2023-11-29T22:47:26.356Z,99711.25
2023-11-29T22:49:56.178Z,99740.38
2023-11-29T22:52:28.565Z,99777.63
2023-11-29T22:54:58.540Z,99749.09
2023-11-29T22:57:28.405Z,99745.56
2023-11-29T22:59:58.292Z,99755.81
2023-11-29T23:02:28.419Z,99700.84
2023-11-29T23:04:58.399Z,99714.56
2023-11-29T23:07:30.766Z,99730.84
2023-11-29T23:10:00.545Z,99790.06
2023-11-29T23:12:31.178Z,99742.00
2023-11-29T23:15:01.112Z,99718.28
2023-11-29T23:17:31.135Z,99725.22
2023-11-29T23:20:01.179Z,99791.88
2023-11-29T23:22:33.588Z,99794.56
2023-11-29T23:25:03.627Z,99777.03
2023-11-29T23:27:33.456Z,99794.41
2023-11-29T23:30:03.419Z,99791.28
2023-11-29T23:32:33.408Z,99710.97
2023-11-29T23:35:03.398Z,99794.88
2023-11-29T23:37:36.567Z,99790.78
2023-11-29T23:40:08.826Z,99602.38
2023-11-29T23:42:39.081Z,99735.63
2023-11-29T23:45:10.417Z,99580.72
2023-11-29T23:47:40.315Z,99756.44
2023-11-29T23:50:10.574Z,99769.09
2023-11-29T23:52:42.937Z,99792.69
2023-11-29T23:55:12.942Z,99760.41
2023-11-29T23:57:42.797Z,99787.91
